Time;durP1;ratioP1;P1;durP2;ratioP2;P2;SDS_P1;SDS_P2;PMS_P1;PMS_P2;Temp;Humidity;BMP_temperature;BMP_pressure;BME280_temperature;BME280_humidity;BME280_pressure;Samples;Min_cycle;Max_cycle;Signal;HPM_P1;HPM_P2
2022/10/23 00:00:36;;;;;;;1.97;1.33;;;8.40;99.90;;;;;;5014271;28;20205;-89
2022/10/23 00:03:07;;;;;;;2.93;1.40;;;8.40;99.90;;;;;;5013266;28;20209;-88
2022/10/23 00:05:41;;;;;;;1.40;1.30;;;8.40;99.90;;;;;;5013093;28;20214;-87
2022/10/23 00:08:15;;;;;;;2.73;1.47;;;8.40;99.90;;;;;;5005766;28;20212;-87
2022/10/23 00:10:46;;;;;;;2.53;1.60;;;8.40;99.90;;;;;;5013608;28;20623;-87
2022/10/23 00:13:18;;;;;;;1.67;1.20;;;8.30;99.90;;;;;;5012930;28;20245;-88
2022/10/23 00:15:49;;;;;;;2.57;1.67;;;8.30;99.90;;;;;;5016713;28;20216;-88
2022/10/23 00:18:21;;;;;;;3.33;2.00;;;8.30;99.90;;;;;;5016360;28;20301;-87
2022/10/23 00:20:52;;;;;;;4.93;3.33;;;8.30;99.90;;;;;;4996824;28;20209;-87
2022/10/23 00:23:26;;;;;;;7.00;4.50;;;8.30;99.90;;;;;;5015696;28;20224;-88
2022/10/23 00:25:57;;;;;;;6.83;4.80;;;8.20;99.90;;;;;;5015245;28;20205;-86
2022/10/23 00:28:28;;;;;;;5.90;5.27;;;8.20;99.90;;;;;;5016602;28;20217;-88
2022/10/23 00:31:02;;;;;;;5.07;4.57;;;8.10;99.90;;;;;;5014176;28;20629;-88
2022/10/23 00:33:34;;;;;;;6.73;4.23;;;8.10;99.90;;;;;;5012306;28;20234;-88
2022/10/23 00:36:07;;;;;;;5.10;3.17;;;8.20;99.90;;;;;;4997602;28;20206;-88
2022/10/23 00:38:41;;;;;;;3.73;3.07;;;8.20;99.90;;;;;;5001958;28;20571;-88
2022/10/23 00:41:17;;;;;;;3.97;2.57;;;8.20;99.90;;;;;;5017271;28;20372;-88
2022/10/23 00:44:01;;;;;;;7.33;3.00;;;8.30;99.90;;;;;;5011728;28;20220;-88
2022/10/23 00:46:33;;;;;;;5.07;3.63;;;8.30;99.90;;;;;;5013731;28;20213;-88
2022/10/23 00:49:06;;;;;;;2.80;2.53;;;8.30;99.90;;;;;;5013171;28;20209;-88
2022/10/23 00:51:40;;;;;;;3.70;3.10;;;8.30;99.90;;;;;;5014305;28;20206;-88
2022/10/23 00:54:14;;;;;;;3.17;1.93;;;8.30;99.90;;;;;;5016150;28;20565;-88
2022/10/23 00:56:58;;;;;;;2.73;2.17;;;8.30;99.90;;;;;;5017214;28;20209;-88
2022/10/23 00:59:31;;;;;;;5.03;3.27;;;8.30;99.90;;;;;;5011679;28;20210;-88
2022/10/23 01:02:05;;;;;;;4.87;3.30;;;8.30;99.90;;;;;;4997326;28;20295;-88
2022/10/23 01:04:38;;;;;;;3.50;2.53;;;8.40;99.90;;;;;;5001432;28;20450;-88
2022/10/23 01:07:16;;;;;;;5.10;2.63;;;8.30;99.90;;;;;;4980319;28;20201;-87
2022/10/23 01:09:57;;;;;;;3.90;2.57;;;8.30;99.90;;;;;;4998800;28;20217;-87
2022/10/23 01:12:36;;;;;;;2.37;2.00;;;8.30;99.90;;;;;;5015810;28;20325;-86
2022/10/23 01:15:12;;;;;;;3.30;2.20;;;8.20;99.90;;;;;;5017027;28;20232;-87
2022/10/23 01:17:47;;;;;;;3.27;2.10;;;8.30;99.90;;;;;;5015794;28;20213;-87
2022/10/23 01:20:36;;;;;;;2.27;2.07;;;8.30;99.90;;;;;;5007488;28;20223;-86
2022/10/23 01:23:37;;;;;;;3.30;2.20;;;8.30;99.90;;;;;;5015326;28;20258;-87
2022/10/23 01:26:32;;;;;;;4.00;2.20;;;8.30;99.90;;;;;;5006143;28;20212;-88
2022/10/23 01:29:10;;;;;;;3.90;2.47;;;8.30;99.90;;;;;;5016328;28;20529;-88
2022/10/23 01:31:45;;;;;;;2.80;2.57;;;8.30;99.90;;;;;;5016958;28;20205;-87
2022/10/23 01:34:21;;;;;;;4.20;3.37;;;8.30;99.90;;;;;;5016605;28;20233;-88
2022/10/23 01:36:54;;;;;;;3.60;3.30;;;8.20;99.90;;;;;;5015002;28;20217;-87
2022/10/23 01:39:28;;;;;;;4.73;3.80;;;8.20;99.90;;;;;;5015458;28;20308;-87
2022/10/23 01:42:05;;;;;;;3.20;2.90;;;8.10;99.90;;;;;;5015536;28;20287;-88
2022/10/23 01:44:42;;;;;;;2.93;2.30;;;8.10;99.90;;;;;;4999485;28;20209;-88
2022/10/23 01:47:16;;;;;;;2.97;2.63;;;8.00;99.90;;;;;;5016343;28;20198;-88
2022/10/23 01:49:49;;;;;;;2.93;2.20;;;8.00;99.90;;;;;;5006626;28;20213;-88
2022/10/23 01:52:22;;;;;;;3.37;1.90;;;7.90;99.90;;;;;;5005928;28;20668;-92
2022/10/23 01:54:56;;;;;;;2.37;2.00;;;7.90;99.90;;;;;;5010481;28;20538;-91
2022/10/23 01:57:30;;;;;;;2.43;1.50;;;7.80;99.90;;;;;;5016931;28;20209;-91
2022/10/23 02:00:09;;;;;;;2.20;1.73;;;7.80;99.90;;;;;;5017026;28;20205;-91
2022/10/23 02:02:42;;;;;;;2.13;1.80;;;7.70;99.90;;;;;;5012833;28;20209;-91
2022/10/23 02:05:18;;;;;;;3.03;1.97;;;7.60;99.90;;;;;;5017760;28;20209;-92
2022/10/23 02:07:49;;;;;;;4.10;2.17;;;7.50;99.90;;;;;;5021874;28;20213;-92
2022/10/23 02:10:21;;;;;;;3.83;2.00;;;7.50;99.90;;;;;;5016744;28;20220;-91
2022/10/23 02:13:00;;;;;;;3.83;2.10;;;7.50;99.90;;;;;;5014947;28;20238;-92
2022/10/23 02:15:39;;;;;;;3.20;2.27;;;7.50;99.90;;;;;;5009433;28;20209;-90
2022/10/23 02:18:23;;;;;;;2.63;2.37;;;7.50;99.90;;;;;;5009848;28;20678;-91
2022/10/23 02:20:59;;;;;;;4.53;2.80;;;7.40;99.90;;;;;;5004046;28;20220;-92
2022/10/23 02:23:35;;;;;;;4.47;2.70;;;7.40;99.90;;;;;;5015509;28;20245;-91
2022/10/23 02:26:16;;;;;;;3.47;3.17;;;7.30;99.90;;;;;;5016821;28;20202;-92
2022/10/23 02:28:54;;;;;;;3.70;2.87;;;7.30;99.90;;;;;;5016375;28;20213;-92
2022/10/23 02:31:27;;;;;;;3.63;3.03;;;7.40;99.90;;;;;;5006358;28;20209;-91
2022/10/23 02:33:59;;;;;;;4.10;3.17;;;7.40;99.90;;;;;;4988294;28;20226;-92
2022/10/23 02:36:31;;;;;;;5.33;4.63;;;7.40;99.90;;;;;;5015777;28;20566;-91
2022/10/23 02:39:02;;;;;;;7.90;6.17;;;7.40;99.90;;;;;;5011243;28;20206;-91
2022/10/23 02:41:43;;;;;;;8.50;6.30;;;7.40;99.90;;;;;;5015835;28;20301;-91
2022/10/23 02:44:37;;;;;;;7.80;6.30;;;7.50;99.90;;;;;;5016185;28;20209;-91
2022/10/23 02:47:22;;;;;;;7.10;5.67;;;7.50;99.90;;;;;;5012669;28;20209;-92
2022/10/23 02:50:03;;;;;;;7.63;6.37;;;7.60;99.90;;;;;;5000248;28;20202;-92
2022/10/23 02:52:42;;;;;;;10.03;6.70;;;7.60;99.90;;;;;;5007692;28;20673;-93
2022/10/23 02:55:24;;;;;;;6.87;5.70;;;7.60;99.90;;;;;;4993061;28;20707;-91
2022/10/23 02:57:59;;;;;;;5.47;4.97;;;7.60;99.90;;;;;;4989837;28;20230;-92
2022/10/23 03:00:33;;;;;;;5.37;4.00;;;7.60;99.90;;;;;;5010650;28;20216;-93
2022/10/23 03:03:14;;;;;;;4.20;3.80;;;7.50;99.90;;;;;;5013719;28;20197;-93
2022/10/23 03:05:46;;;;;;;5.57;4.70;;;7.40;99.90;;;;;;5024146;28;20219;-92
2022/10/23 03:08:17;;;;;;;7.30;6.00;;;7.40;99.90;;;;;;5015222;28;20224;-91
2022/10/23 03:10:48;;;;;;;9.60;7.53;;;7.40;99.90;;;;;;5013554;28;20213;-92
2022/10/23 03:13:19;;;;;;;8.23;7.43;;;7.50;99.90;;;;;;5020934;28;20198;-91
2022/10/23 03:15:50;;;;;;;8.10;7.10;;;7.60;99.90;;;;;;5020286;28;20214;-92
2022/10/23 03:18:27;;;;;;;5.90;5.00;;;7.60;99.90;;;;;;4987544;28;20202;-91
2022/10/23 03:20:58;;;;;;;5.23;4.70;;;7.70;99.90;;;;;;5020347;28;20209;-90
2022/10/23 03:23:30;;;;;;;6.30;4.17;;;7.70;99.90;;;;;;5019693;28;20220;-91
2022/10/23 03:26:03;;;;;;;3.37;3.07;;;7.70;99.90;;;;;;5019726;28;20209;-91
2022/10/23 03:28:34;;;;;;;6.30;4.00;;;7.70;99.90;;;;;;5016095;28;20206;-90
2022/10/23 03:31:07;;;;;;;4.10;3.67;;;7.70;99.90;;;;;;5008741;28;20194;-91
2022/10/23 03:33:41;;;;;;;5.37;3.57;;;7.70;99.90;;;;;;5017980;28;20233;-91
2022/10/23 03:36:12;;;;;;;4.37;3.97;;;7.70;99.90;;;;;;5004652;28;20293;-91
2022/10/23 03:38:43;;;;;;;6.30;3.80;;;7.70;99.90;;;;;;5016346;28;20212;-90
2022/10/23 03:41:14;;;;;;;4.87;4.10;;;7.60;99.90;;;;;;5017544;28;20661;-91
2022/10/23 03:43:45;;;;;;;5.30;4.77;;;7.60;99.90;;;;;;5016231;28;20304;-91
2022/10/23 03:46:17;;;;;;;5.40;4.90;;;7.50;99.90;;;;;;4999440;28;20213;-91
2022/10/23 03:48:50;;;;;;;16.07;6.40;;;7.50;99.90;;;;;;4998695;28;20216;-92
2022/10/23 03:51:22;;;;;;;20.87;6.87;;;7.50;99.90;;;;;;5015142;28;20215;-91
2022/10/23 03:53:53;;;;;;;22.40;6.77;;;7.40;99.90;;;;;;5012515;28;20239;-92
2022/10/23 03:56:24;;;;;;;8.83;6.10;;;7.40;99.90;;;;;;5011960;28;20260;-91
2022/10/23 03:58:55;;;;;;;5.83;5.03;;;7.30;99.90;;;;;;5012551;28;20233;-89
2022/10/23 04:01:26;;;;;;;5.80;4.90;;;7.20;99.90;;;;;;5012330;28;20209;-90
2022/10/23 04:04:03;;;;;;;6.27;4.90;;;7.20;99.90;;;;;;5004744;28;20268;-91
2022/10/23 04:06:34;;;;;;;5.50;4.90;;;7.10;99.90;;;;;;4999240;28;20205;-92
2022/10/23 04:09:07;;;;;;;5.17;4.67;;;7.10;99.90;;;;;;5013600;28;20214;-92
2022/10/23 04:11:38;;;;;;;6.03;5.13;;;7.10;99.90;;;;;;5006817;28;20202;-91
2022/10/23 04:14:12;;;;;;;5.67;4.80;;;7.00;99.90;;;;;;5012183;28;20253;-91
2022/10/23 04:16:43;;;;;;;5.57;5.00;;;7.00;99.90;;;;;;5015139;28;20209;-91
2022/10/23 04:19:17;;;;;;;5.73;4.63;;;7.00;99.90;;;;;;5015089;28;20668;-92
2022/10/23 04:21:48;;;;;;;5.30;4.70;;;6.90;99.90;;;;;;5013587;28;20196;-93
2022/10/23 04:24:20;;;;;;;4.97;4.47;;;6.90;99.90;;;;;;5014776;28;20225;-92
2022/10/23 04:26:51;;;;;;;5.70;5.20;;;6.80;99.90;;;;;;5013068;28;20210;-91
2022/10/23 04:29:23;;;;;;;9.07;4.63;;;6.70;99.90;;;;;;5013962;28;20210;-91
2022/10/23 04:31:54;;;;;;;5.60;5.00;;;6.70;99.90;;;;;;5005965;28;20217;-92
2022/10/23 04:34:28;;;;;;;4.97;4.47;;;6.60;99.90;;;;;;5013928;28;20239;-90
2022/10/23 04:36:59;;;;;;;6.40;4.93;;;6.60;99.90;;;;;;5002547;28;20289;-91
2022/10/23 04:39:30;;;;;;;5.60;5.03;;;6.50;99.90;;;;;;5020362;28;20292;-91
2022/10/23 04:42:01;;;;;;;6.27;4.97;;;6.50;99.90;;;;;;5015222;28;20207;-91
2022/10/23 04:44:32;;;;;;;5.77;5.20;;;6.50;99.90;;;;;;5017137;28;20213;-90
2022/10/23 04:47:03;;;;;;;7.77;5.33;;;6.40;99.90;;;;;;4991505;28;20710;-90
2022/10/23 04:49:37;;;;;;;5.53;5.03;;;6.30;99.90;;;;;;5016214;28;20209;-91
2022/10/23 04:52:08;;;;;;;5.33;4.83;;;6.30;99.90;;;;;;5013747;28;20219;-91
2022/10/23 04:54:40;;;;;;;6.37;4.97;;;6.30;99.90;;;;;;5009593;28;20695;-92
2022/10/23 04:57:11;;;;;;;5.53;4.47;;;6.30;99.90;;;;;;5015154;28;20220;-92
2022/10/23 04:59:43;;;;;;;6.17;4.87;;;6.20;99.90;;;;;;5014701;28;20557;-90
2022/10/23 05:02:14;;;;;;;6.33;4.67;;;6.30;99.90;;;;;;5013337;28;20312;-91
2022/10/23 05:04:47;;;;;;;5.67;5.07;;;6.20;99.90;;;;;;5014031;28;20233;-92
2022/10/23 05:07:19;;;;;;;6.93;5.40;;;6.20;99.90;;;;;;5014383;28;20224;-91
2022/10/23 05:09:50;;;;;;;5.17;4.37;;;6.20;99.90;;;;;;5011993;28;20204;-91
2022/10/23 05:12:24;;;;;;;5.10;4.60;;;6.20;99.90;;;;;;5020808;28;20205;-91
2022/10/23 05:14:55;;;;;;;6.37;4.60;;;6.10;99.90;;;;;;5005726;28;20225;-91
2022/10/23 05:17:30;;;;;;;5.00;4.43;;;6.00;99.90;;;;;;5012848;28;20215;-91
2022/10/23 05:20:06;;;;;;;5.07;4.57;;;6.00;99.90;;;;;;5019340;28;20213;-90
2022/10/23 05:22:42;;;;;;;5.50;5.00;;;6.00;99.90;;;;;;5032714;28;20229;-91
2022/10/23 05:25:14;;;;;;;4.80;4.30;;;6.10;99.90;;;;;;5032791;28;20267;-92
2022/10/23 05:27:45;;;;;;;5.60;4.83;;;6.00;99.90;;;;;;5027750;28;20222;-90
2022/10/23 05:30:17;;;;;;;5.10;4.60;;;6.00;99.90;;;;;;5023257;28;20228;-90
2022/10/23 05:32:48;;;;;;;5.77;5.07;;;5.90;99.90;;;;;;5016973;28;20209;-90
2022/10/23 05:35:24;;;;;;;5.13;4.63;;;5.90;99.90;;;;;;5008020;28;20236;-90
2022/10/23 05:37:56;;;;;;;6.03;4.33;;;5.90;99.90;;;;;;4990866;28;20218;-90
2022/10/23 05:40:28;;;;;;;4.43;4.03;;;5.80;99.90;;;;;;5016884;28;20231;-90
2022/10/23 05:42:59;;;;;;;5.40;4.73;;;5.80;99.90;;;;;;5016595;28;20304;-91
2022/10/23 05:45:30;;;;;;;5.33;4.37;;;5.80;99.90;;;;;;5000633;28;20655;-90
2022/10/23 05:48:02;;;;;;;4.73;4.20;;;5.70;99.90;;;;;;5018074;28;20208;-89
2022/10/23 05:50:48;;;;;;;6.60;4.00;;;5.70;99.90;;;;;;5023219;28;20210;-89
2022/10/23 05:53:20;;;;;;;4.40;4.00;;;5.70;99.90;;;;;;5018836;28;20205;-90
2022/10/23 05:55:52;;;;;;;6.00;4.53;;;5.80;99.90;;;;;;5017104;28;20677;-91
2022/10/23 05:58:23;;;;;;;5.60;4.27;;;5.80;99.90;;;;;;5017769;28;20575;-91
2022/10/23 06:00:54;;;;;;;6.53;4.67;;;5.80;99.90;;;;;;5018491;28;20206;-91
2022/10/23 06:03:26;;;;;;;10.20;5.03;;;5.90;99.90;;;;;;5011651;28;20205;-91
2022/10/23 06:05:59;;;;;;;11.00;5.70;;;5.90;99.90;;;;;;5003024;28;20619;-91
2022/10/23 06:08:31;;;;;;;7.83;5.60;;;6.00;99.90;;;;;;5000451;28;20202;-91
2022/10/23 06:11:08;;;;;;;6.90;5.10;;;6.10;99.90;;;;;;5011271;28;20211;-91
2022/10/23 06:13:39;;;;;;;6.40;5.77;;;6.10;99.90;;;;;;5003122;28;20209;-91
2022/10/23 06:16:12;;;;;;;5.53;4.73;;;6.10;99.90;;;;;;5011247;28;20236;-92
2022/10/23 06:18:44;;;;;;;6.23;4.67;;;6.20;99.90;;;;;;5014612;28;20581;-91
2022/10/23 06:21:18;;;;;;;5.80;5.20;;;6.30;99.90;;;;;;5016159;28;20259;-93
2022/10/23 06:23:49;;;;;;;4.90;4.40;;;6.30;99.90;;;;;;5014850;28;20210;-90
2022/10/23 06:26:20;;;;;;;5.40;4.47;;;6.30;99.90;;;;;;5015692;28;20202;-90
2022/10/23 06:28:51;;;;;;;5.80;5.20;;;6.40;99.90;;;;;;5015957;28;20210;-91
2022/10/23 06:31:25;;;;;;;5.53;4.77;;;6.40;99.90;;;;;;5015889;28;20304;-92
2022/10/23 06:33:57;;;;;;;6.17;4.83;;;6.40;99.90;;;;;;5002767;28;20665;-92
2022/10/23 06:36:32;;;;;;;5.90;4.90;;;6.40;99.90;;;;;;5016064;28;20295;-90
2022/10/23 06:39:04;;;;;;;4.97;4.57;;;6.50;99.90;;;;;;5018100;28;20206;-91
2022/10/23 06:41:35;;;;;;;5.17;4.67;;;6.60;99.90;;;;;;5015267;28;20298;-92
2022/10/23 06:44:06;;;;;;;5.43;4.47;;;6.60;99.90;;;;;;4998532;28;20582;-92
2022/10/23 06:46:37;;;;;;;6.37;4.30;;;6.70;99.90;;;;;;5016413;28;20217;-91
2022/10/23 06:49:09;;;;;;;4.50;4.10;;;6.70;99.90;;;;;;5000798;28;20642;-92
2022/10/23 06:51:42;;;;;;;5.40;4.40;;;6.70;99.90;;;;;;5015560;28;20217;-92
2022/10/23 06:54:14;;;;;;;5.00;4.50;;;6.70;99.90;;;;;;5015162;28;20221;-90
2022/10/23 06:56:45;;;;;;;4.90;4.27;;;6.80;99.90;;;;;;5001222;28;20737;-89
2022/10/23 06:59:18;;;;;;;4.27;3.87;;;6.80;99.90;;;;;;4999623;28;20205;-91
2022/10/23 07:01:50;;;;;;;5.87;4.20;;;6.80;99.90;;;;;;4991877;28;20320;-92
2022/10/23 07:04:21;;;;;;;4.13;3.70;;;6.90;99.90;;;;;;5018824;28;20217;-91
2022/10/23 07:06:57;;;;;;;5.10;3.83;;;6.90;99.90;;;;;;5016451;28;20221;-92
2022/10/23 07:09:28;;;;;;;4.13;3.73;;;6.90;99.90;;;;;;5016521;28;20209;-91
2022/10/23 07:11:59;;;;;;;4.47;4.07;;;7.00;99.90;;;;;;5004076;28;20307;-90
2022/10/23 07:14:32;;;;;;;4.67;4.17;;;7.00;99.90;;;;;;5013879;28;20216;-89
2022/10/23 07:17:05;;;;;;;3.50;3.20;;;7.00;99.90;;;;;;4653247;28;10000343;-90
2022/10/23 07:19:36;;;;;;;3.60;3.30;;;7.00;99.90;;;;;;5014340;28;20221;-90
2022/10/23 07:22:11;;;;;;;4.07;3.63;;;7.00;99.90;;;;;;4996645;28;20209;-90
2022/10/23 07:24:47;;;;;;;4.77;3.70;;;7.00;99.90;;;;;;5014324;28;20213;-91
2022/10/23 07:27:18;;;;;;;3.00;2.80;;;7.00;99.90;;;;;;5014912;28;20233;-91
2022/10/23 07:29:52;;;;;;;3.00;2.70;;;7.00;99.90;;;;;;5000617;28;20221;-91
2022/10/23 07:32:26;;;;;;;3.60;3.30;;;7.10;99.90;;;;;;4996725;28;20212;-90
2022/10/23 07:34:57;;;;;;;3.13;2.83;;;7.10;99.90;;;;;;5014553;28;20669;-90
2022/10/23 07:37:32;;;;;;;4.27;2.83;;;7.10;99.90;;;;;;5004002;28;20246;-91
2022/10/23 07:40:03;;;;;;;3.07;2.73;;;7.10;99.90;;;;;;4996133;28;20203;-89
2022/10/23 07:42:34;;;;;;;3.23;2.90;;;7.10;99.90;;;;;;4993984;28;20226;-90
2022/10/23 07:45:06;;;;;;;2.73;2.47;;;7.10;99.90;;;;;;4981281;28;20665;-91
2022/10/23 07:47:37;;;;;;;3.80;3.40;;;7.10;99.90;;;;;;5014572;28;20217;-90
2022/10/23 07:50:10;;;;;;;4.00;3.67;;;7.20;99.90;;;;;;5014400;28;20670;-91
2022/10/23 07:52:43;;;;;;;6.50;3.67;;;7.20;99.90;;;;;;5013405;28;20214;-91
2022/10/23 07:55:15;;;;;;;4.07;3.23;;;7.10;99.90;;;;;;5017374;28;20222;-91
2022/10/23 07:57:46;;;;;;;4.13;3.00;;;7.20;99.90;;;;;;5014649;28;20241;-91
2022/10/23 08:00:18;;;;;;;3.37;3.07;;;7.20;99.90;;;;;;4997455;28;20213;-90
2022/10/23 08:02:49;;;;;;;4.57;3.73;;;7.20;99.90;;;;;;4996525;28;20209;-91
2022/10/23 08:05:21;;;;;;;3.93;3.43;;;7.20;99.90;;;;;;5014906;28;20205;-90
2022/10/23 08:07:54;;;;;;;6.03;2.80;;;7.20;99.90;;;;;;5014788;28;20213;-91
2022/10/23 08:10:25;;;;;;;3.60;2.67;;;7.20;99.90;;;;;;5010867;28;20243;-91
2022/10/23 08:12:56;;;;;;;3.67;3.00;;;7.30;99.90;;;;;;5013749;28;20198;-90
2022/10/23 08:15:28;;;;;;;3.90;2.83;;;7.30;99.90;;;;;;5015578;28;20209;-91
2022/10/23 08:17:59;;;;;;;3.00;2.60;;;7.30;99.90;;;;;;5015116;28;20694;-91
2022/10/23 08:20:30;;;;;;;3.37;2.90;;;7.40;99.90;;;;;;4995438;28;20213;-92
2022/10/23 08:23:04;;;;;;;3.63;3.33;;;7.30;99.90;;;;;;4998757;28;20210;-91
2022/10/23 08:25:36;;;;;;;3.70;3.37;;;7.30;99.90;;;;;;4995352;28;20210;-91
2022/10/23 08:28:09;;;;;;;4.73;3.20;;;7.30;99.90;;;;;;4997728;28;20213;-91
2022/10/23 08:30:43;;;;;;;4.50;3.37;;;7.30;99.90;;;;;;5010918;28;20233;-91
2022/10/23 08:33:16;;;;;;;5.93;3.90;;;7.30;99.90;;;;;;5019071;28;20881;-91
2022/10/23 08:35:48;;;;;;;4.87;4.03;;;7.30;99.90;;;;;;5016385;28;20260;-91
2022/10/23 08:38:22;;;;;;;4.30;3.57;;;7.20;99.90;;;;;;5014525;28;20578;-91
2022/10/23 08:40:53;;;;;;;4.47;3.57;;;7.30;99.90;;;;;;5018423;28;20213;-91
2022/10/23 08:43:31;;;;;;;3.40;3.10;;;7.30;99.90;;;;;;5014467;28;20205;-91
2022/10/23 08:46:05;;;;;;;3.90;3.50;;;7.30;99.90;;;;;;5014265;28;20591;-90
2022/10/23 08:48:43;;;;;;;3.37;2.60;;;7.30;99.90;;;;;;5015328;28;20642;-91
2022/10/23 08:51:18;;;;;;;3.77;3.37;;;7.30;99.90;;;;;;5017596;28;20679;-91
2022/10/23 08:53:57;;;;;;;3.53;3.03;;;7.30;99.90;;;;;;5015400;28;20226;-91
2022/10/23 08:56:31;;;;;;;3.90;3.30;;;7.30;99.90;;;;;;5032927;28;20300;-91
2022/10/23 08:59:08;;;;;;;4.47;3.00;;;7.30;99.90;;;;;;5001040;28;20220;-90
2022/10/23 09:01:42;;;;;;;3.87;2.60;;;7.40;99.90;;;;;;5035063;28;20614;-90
2022/10/23 09:04:16;;;;;;;3.20;2.90;;;7.40;99.90;;;;;;5016627;28;20215;-91
2022/10/23 09:06:55;;;;;;;4.30;2.90;;;7.40;99.90;;;;;;5016525;28;20672;-91
2022/10/23 09:09:58;;;;;;;4.03;3.23;;;7.40;99.90;;;;;;5034211;28;20211;-90
2022/10/23 09:12:31;;;;;;;4.63;4.20;;;7.30;99.90;;;;;;5034047;28;20212;-90
2022/10/23 09:15:27;;;;;;;5.70;4.13;;;7.30;99.90;;;;;;5037839;28;20209;-91
2022/10/23 09:18:00;;;;;;;6.27;4.43;;;7.30;99.90;;;;;;5025778;28;20258;-92
2022/10/23 09:20:34;;;;;;;4.90;4.30;;;7.20;99.90;;;;;;5018544;28;20565;-91
2022/10/23 09:23:15;;;;;;;4.93;4.20;;;7.20;99.90;;;;;;5017324;28;20201;-91
2022/10/23 09:25:54;;;;;;;5.60;3.90;;;7.10;99.90;;;;;;5018232;28;20235;-92
2022/10/23 09:28:31;;;;;;;4.23;3.83;;;7.00;99.90;;;;;;5018371;28;20209;-92
2022/10/23 09:31:09;;;;;;;6.30;4.20;;;7.00;99.90;;;;;;5018265;28;20216;-94
2022/10/23 09:33:41;;;;;;;4.47;4.03;;;7.00;99.90;;;;;;5017069;28;20212;-91
2022/10/23 09:36:23;;;;;;;4.13;3.70;;;6.90;99.90;;;;;;5018021;28;20240;-89
2022/10/23 09:38:57;;;;;;;6.90;3.90;;;7.00;99.90;;;;;;5018118;28;20578;-91
2022/10/23 09:41:35;;;;;;;4.97;3.87;;;6.90;99.90;;;;;;5017671;28;20274;-90
2022/10/23 09:44:20;;;;;;;5.10;4.43;;;7.00;99.90;;;;;;4998968;28;20637;-91
2022/10/23 09:46:55;;;;;;;6.87;5.13;;;6.90;99.90;;;;;;4998618;28;20209;-91
2022/10/23 09:49:28;;;;;;;6.40;5.73;;;6.60;99.90;;;;;;4998242;28;20214;-91
2022/10/23 09:52:05;;;;;;;7.77;6.73;;;6.40;99.90;;;;;;5009374;28;20220;-91
2022/10/23 09:54:40;;;;;;;6.20;5.60;;;6.50;99.90;;;;;;5020437;28;20553;-91
2022/10/23 09:57:24;;;;;;;6.03;5.23;;;6.50;99.90;;;;;;5019477;28;20233;-91
2022/10/23 09:59:57;;;;;;;5.73;5.17;;;6.60;99.90;;;;;;5019918;28;20205;-91
2022/10/23 10:02:31;;;;;;;6.27;5.63;;;6.70;99.90;;;;;;5000527;28;20215;-90
2022/10/23 10:05:22;;;;;;;5.07;4.57;;;6.70;99.90;;;;;;5020241;28;20209;-92
2022/10/23 10:08:01;;;;;;;7.13;4.70;;;6.80;99.90;;;;;;5015800;28;21200;-91
2022/10/23 10:10:38;;;;;;;6.00;5.40;;;6.80;99.90;;;;;;5000237;28;20546;-91
2022/10/23 10:13:23;;;;;;;5.30;4.60;;;6.80;99.90;;;;;;5017328;28;20216;-91
2022/10/23 10:15:59;;;;;;;4.93;4.40;;;6.90;99.90;;;;;;5017202;28;20211;-91
2022/10/23 10:18:37;;;;;;;6.17;4.70;;;6.90;99.90;;;;;;5002798;28;20240;-92
2022/10/23 10:21:18;;;;;;;4.97;4.47;;;6.90;99.90;;;;;;5018101;28;20216;-93
2022/10/23 10:23:56;;;;;;;5.27;4.30;;;7.00;99.90;;;;;;5015377;28;20296;-92
2022/10/23 10:26:40;;;;;;;4.60;4.00;;;6.90;99.90;;;;;;5017104;28;20220;-91
2022/10/23 10:29:29;;;;;;;5.43;4.23;;;6.90;99.90;;;;;;5000090;28;20650;-91
2022/10/23 10:32:14;;;;;;;6.33;4.80;;;6.70;99.90;;;;;;5016790;28;20244;-91
2022/10/23 10:34:54;;;;;;;6.50;5.30;;;6.60;99.90;;;;;;4999930;28;20214;-92
2022/10/23 10:37:35;;;;;;;7.83;5.00;;;6.60;99.90;;;;;;5017033;28;20588;-92
2022/10/23 10:40:15;;;;;;;22.13;5.23;;;6.70;99.90;;;;;;5017788;28;20201;-91
2022/10/23 10:43:04;;;;;;;10.70;5.80;;;6.60;99.90;;;;;;5016849;28;20254;-92
2022/10/23 10:45:40;;;;;;;7.67;5.00;;;6.50;99.90;;;;;;5017097;28;20201;-93
2022/10/23 10:48:29;;;;;;;8.67;5.67;;;6.50;99.90;;;;;;4999242;28;20225;-91
2022/10/23 10:51:03;;;;;;;5.10;4.53;;;6.60;99.90;;;;;;5012534;28;20655;-90
2022/10/23 10:53:50;;;;;;;6.10;4.70;;;6.60;99.90;;;;;;4996386;28;20236;-91
2022/10/23 10:56:24;;;;;;;6.47;4.10;;;6.50;99.90;;;;;;4998417;28;20220;-90
2022/10/23 10:59:01;;;;;;;5.40;4.30;;;6.50;99.90;;;;;;4999860;28;20242;-91
2022/10/23 11:01:41;;;;;;;6.80;4.23;;;6.50;99.90;;;;;;5017395;28;20633;-90
2022/10/23 11:04:23;;;;;;;9.90;4.60;;;6.50;99.90;;;;;;5017150;28;20229;-91
2022/10/23 11:06:55;;;;;;;4.60;4.20;;;6.50;99.90;;;;;;5017275;28;20209;-91
2022/10/23 11:09:29;;;;;;;4.53;4.13;;;6.50;99.90;;;;;;5003196;28;20218;-91
2022/10/23 11:12:02;;;;;;;4.30;3.90;;;6.50;99.90;;;;;;5036141;28;20224;-91
2022/10/23 11:14:35;;;;;;;6.10;4.33;;;6.40;99.90;;;;;;5037422;28;20196;-92
2022/10/23 11:17:14;;;;;;;11.90;4.47;;;6.40;99.90;;;;;;5036321;28;20253;-92
2022/10/23 11:19:53;;;;;;;16.20;4.90;;;6.40;99.90;;;;;;5024757;28;20209;-91
2022/10/23 11:22:29;;;;;;;16.87;4.57;;;6.20;99.90;;;;;;5021983;28;20211;-91
2022/10/23 11:25:24;;;;;;;5.60;4.30;;;6.20;99.90;;;;;;5023489;28;20209;-92
2022/10/23 11:28:20;;;;;;;5.50;4.00;;;6.20;99.90;;;;;;5022088;28;20217;-92
2022/10/23 11:31:08;;;;;;;4.43;4.03;;;6.30;99.90;;;;;;5017410;28;20241;-92
2022/10/23 11:34:01;;;;;;;4.10;3.70;;;6.20;99.90;;;;;;5020653;28;20216;-91
2022/10/23 11:36:47;;;;;;;9.50;3.77;;;6.20;99.90;;;;;;5016901;28;20213;-92
2022/10/23 11:39:24;;;;;;;19.83;4.47;;;6.10;99.90;;;;;;5016109;28;20236;-92
2022/10/23 11:41:59;;;;;;;41.70;5.20;;;6.10;99.90;;;;;;4999398;28;20668;-90
2022/10/23 11:44:43;;;;;;;22.93;4.63;;;6.00;99.90;;;;;;5019531;28;20217;-92
2022/10/23 11:47:35;;;;;;;43.10;5.47;;;6.00;99.90;;;;;;5015547;28;20206;-92
2022/10/23 11:50:29;;;;;;;116.63;7.80;;;5.90;99.90;;;;;;5016729;28;20232;-92
2022/10/23 11:53:09;;;;;;;127.10;6.27;;;5.90;99.90;;;;;;5014759;28;20240;-91
2022/10/23 11:56:02;;;;;;;103.70;5.40;;;5.80;99.90;;;;;;5016139;28;20213;-91
2022/10/23 11:58:45;;;;;;;142.40;6.53;;;5.80;99.90;;;;;;5017451;28;20233;-92
2022/10/23 12:01:36;;;;;;;65.03;5.70;;;5.80;99.90;;;;;;5017446;28;20210;-90
2022/10/23 12:04:21;;;;;;;53.43;4.17;;;5.80;99.90;;;;;;5014409;28;20219;-91
2022/10/23 12:06:59;;;;;;;10.87;3.00;;;5.70;99.90;;;;;;5014906;28;20205;-91
2022/10/23 12:09:32;;;;;;;7.60;2.70;;;5.70;99.90;;;;;;4998150;28;20236;-91
2022/10/23 12:12:19;;;;;;;12.10;3.20;;;5.60;99.90;;;;;;5014406;28;20201;-91
2022/10/23 12:14:52;;;;;;;7.27;2.60;;;5.60;99.90;;;;;;4997800;28;20202;-91
2022/10/23 12:17:40;;;;;;;2.87;2.57;;;5.50;99.90;;;;;;5015085;28;20558;-90
2022/10/23 12:20:36;;;;;;;3.00;2.63;;;5.50;99.90;;;;;;5015206;28;20217;-90
2022/10/23 12:23:40;;;;;;;3.63;2.87;;;5.50;99.90;;;;;;5007428;28;20201;-90
2022/10/23 12:26:39;;;;;;;2.70;2.50;;;5.50;99.90;;;;;;5014195;28;20237;-90
2022/10/23 12:29:21;;;;;;;2.67;2.47;;;5.50;99.90;;;;;;5014372;28;20240;-91
2022/10/23 12:32:00;;;;;;;2.93;2.63;;;5.50;99.90;;;;;;4996129;28;20214;-91
2022/10/23 12:34:44;;;;;;;3.07;2.83;;;5.50;99.90;;;;;;5014749;28;20205;-91
2022/10/23 12:37:48;;;;;;;4.43;2.93;;;5.50;99.90;;;;;;5015580;28;20682;-92
2022/10/23 12:40:26;;;;;;;3.20;2.90;;;5.50;99.90;;;;;;5016121;28;20209;-92
2022/10/23 12:43:00;;;;;;;4.10;3.50;;;5.60;99.90;;;;;;5017877;28;20213;-92
2022/10/23 12:45:36;;;;;;;3.00;2.77;;;5.70;99.90;;;;;;4999998;28;20621;-92
2022/10/23 12:48:19;;;;;;;7.10;3.80;;;5.80;99.90;;;;;;5016412;28;20570;-92
2022/10/23 12:50:53;;;;;;;3.70;3.30;;;5.80;99.90;;;;;;5018575;28;20220;-92
2022/10/23 12:53:26;;;;;;;5.23;3.40;;;5.90;99.90;;;;;;5014993;28;20209;-91
2022/10/23 12:56:02;;;;;;;3.90;3.30;;;5.90;99.90;;;;;;5017468;28;20224;-90
2022/10/23 12:58:36;;;;;;;3.47;3.17;;;6.00;99.90;;;;;;5016000;28;20201;-91
2022/10/23 13:01:08;;;;;;;3.63;3.33;;;6.10;99.90;;;;;;5014814;28;20235;-91
2022/10/23 13:03:40;;;;;;;4.47;3.30;;;6.10;99.90;;;;;;5014055;28;20318;-91
2022/10/23 13:06:12;;;;;;;4.63;3.10;;;6.20;99.90;;;;;;4997582;28;20197;-91
2022/10/23 13:08:46;;;;;;;3.23;2.90;;;6.30;99.90;;;;;;5013907;28;20233;-91
2022/10/23 13:11:21;;;;;;;4.00;2.90;;;6.30;99.90;;;;;;5014258;28;20210;-91
2022/10/23 13:13:53;;;;;;;2.73;2.53;;;6.30;99.90;;;;;;5013535;28;20205;-91
2022/10/23 13:16:27;;;;;;;2.60;2.40;;;6.40;99.90;;;;;;4996987;28;20213;-91
2022/10/23 13:18:58;;;;;;;4.30;2.80;;;6.40;99.90;;;;;;5014156;28;20245;-91
2022/10/23 13:21:31;;;;;;;3.30;2.50;;;6.40;99.90;;;;;;5014124;28;20202;-91
2022/10/23 13:24:02;;;;;;;3.13;2.83;;;6.40;99.90;;;;;;5014342;28;20213;-91
2022/10/23 13:26:43;;;;;;;2.80;2.40;;;6.40;99.90;;;;;;5014145;28;20225;-91
2022/10/23 13:29:21;;;;;;;3.57;2.37;;;6.50;99.90;;;;;;5014639;28;20221;-91
2022/10/23 13:31:53;;;;;;;2.53;2.30;;;6.60;99.90;;;;;;5013630;28;20259;-91
2022/10/23 13:34:29;;;;;;;3.03;2.43;;;6.60;99.90;;;;;;5014201;28;20206;-91
2022/10/23 13:37:03;;;;;;;5.57;2.53;;;6.60;99.90;;;;;;5013846;28;20272;-92
2022/10/23 13:39:35;;;;;;;2.30;2.10;;;6.60;99.90;;;;;;5014171;28;20201;-92